Time;durP1;ratioP1;P1;durP2;ratioP2;P2;SDS_P1;SDS_P2;PMS_P1;PMS_P2;Temp;Humidity;BMP_temperature;BMP_pressure;BME280_temperature;BME280_humidity;BME280_pressure;Samples;Min_cycle;Max_cycle;Signal;HPM_P1;HPM_P2
2023/03/05 00:02:07;;;;;;;;;19.75;15.50;;;;;7.87;100.00;102116.09;5035073;28;45388;-82
2023/03/05 00:04:32;;;;;;;;;15.25;13.00;;;;;7.86;100.00;102117.00;5034634;28;45402;-82
2023/03/05 00:06:58;;;;;;;;;15.50;10.25;;;;;7.86;100.00;102111.81;5034871;28;62439;-83
2023/03/05 00:09:23;;;;;;;;;19.00;16.00;;;;;7.86;100.00;102111.81;5035417;28;60550;-82
2023/03/05 00:11:48;;;;;;;;;11.75;11.75;;;;;7.85;100.00;102116.09;5034059;28;51476;-82
2023/03/05 00:14:14;;;;;;;;;17.50;9.25;;;;;7.86;100.00;102110.06;5034728;28;61415;-82
2023/03/05 00:16:39;;;;;;;;;17.75;14.75;;;;;7.87;100.00;102105.75;5034248;28;65421;-82
2023/03/05 00:19:05;;;;;;;;;14.25;12.75;;;;;7.88;100.00;102112.66;5017947;28;45493;-82
2023/03/05 00:21:33;;;;;;;;;19.25;14.75;;;;;7.87;100.00;102105.75;5035318;28;45419;-82
2023/03/05 00:24:00;;;;;;;;;12.25;12.00;;;;;7.88;100.00;102103.16;5034276;28;45795;-82
2023/03/05 00:26:27;;;;;;;;;21.75;14.25;;;;;7.88;100.00;102104.91;5035192;28;45373;-82
2023/03/05 00:28:54;;;;;;;;;16.00;13.00;;;;;7.88;100.00;102110.09;5034049;28;45509;-82
2023/03/05 00:31:21;;;;;;;;;19.00;15.00;;;;;7.88;100.00;102108.34;5035385;28;45384;-82
2023/03/05 00:33:54;;;;;;;;;20.00;15.25;;;;;7.88;100.00;102107.50;5032876;28;45368;-82
2023/03/05 00:36:19;;;;;;;;;17.50;16.00;;;;;7.89;100.00;102111.78;5035474;28;45328;-82
2023/03/05 00:38:45;;;;;;;;;16.50;11.25;;;;;7.88;100.00;102110.09;5034602;28;58041;-82
2023/03/05 00:41:11;;;;;;;;;21.75;14.75;;;;;7.87;100.00;102104.00;5034518;28;61070;-82
2023/03/05 00:43:36;;;;;;;;;15.75;14.75;;;;;7.86;100.00;102106.63;5034864;28;45373;-82
2023/03/05 00:46:02;;;;;;;;;16.25;14.75;;;;;7.85;100.00;102103.13;5033021;28;60322;-81
2023/03/05 00:48:27;;;;;;;;;19.00;13.00;;;;;7.86;100.00;102093.66;5033879;28;45385;-82
2023/03/05 00:50:52;;;;;;;;;16.75;12.00;;;;;7.84;100.00;102087.59;5033782;28;45263;-82
2023/03/05 00:53:18;;;;;;;;;25.75;11.25;;;;;7.84;100.00;102092.78;5033931;28;45402;-82
2023/03/05 00:55:44;;;;;;;;;23.00;13.00;;;;;7.85;100.00;102086.72;5033948;28;45328;-82
2023/03/05 00:58:09;;;;;;;;;16.00;12.50;;;;;7.84;100.00;102090.19;5033694;28;53530;-82
2023/03/05 01:00:35;;;;;;;;;25.50;14.00;;;;;7.82;100.00;102078.91;5033950;28;45302;-82
2023/03/05 01:03:00;;;;;;;;;23.00;14.75;;;;;7.81;100.00;102085.84;5034030;28;62111;-82
2023/03/05 01:05:26;;;;;;;;;19.25;16.00;;;;;7.82;100.00;102084.09;5034552;28;58686;-82
2023/03/05 01:07:53;;;;;;;;;26.50;19.75;;;;;7.82;100.00;102079.81;5032954;28;63715;-82
2023/03/05 01:10:19;;;;;;;;;18.50;14.25;;;;;7.81;100.00;102083.25;5033840;28;46471;-82
2023/03/05 01:12:44;;;;;;;;;17.50;11.50;;;;;7.79;100.00;102079.78;5032902;28;45860;-83
2023/03/05 01:15:10;;;;;;;;;19.50;14.25;;;;;7.76;100.00;102079.75;5042668;28;45404;-82
2023/03/05 01:17:35;;;;;;;;;15.50;15.50;;;;;7.72;100.00;102075.44;5036921;28;45425;-82
2023/03/05 01:20:01;;;;;;;;;18.75;14.75;;;;;7.71;100.00;102081.50;5035496;28;45422;-82
2023/03/05 01:22:26;;;;;;;;;15.75;11.75;;;;;7.72;100.00;102072.84;5033789;28;65891;-81
2023/03/05 01:24:52;;;;;;;;;22.25;16.00;;;;;7.72;100.00;102073.69;5033316;28;57010;-83
2023/03/05 01:27:17;;;;;;;;;16.25;12.00;;;;;7.72;100.00;102068.50;5032635;28;57182;-83
2023/03/05 01:29:42;;;;;;;;;17.75;15.50;;;;;7.73;100.00;102070.25;5034941;28;45472;-82
2023/03/05 01:32:08;;;;;;;;;19.25;11.75;;;;;7.73;100.00;102062.47;5034733;28;62150;-82
2023/03/05 01:34:35;;;;;;;;;21.75;16.50;;;;;7.74;100.00;102055.56;5033426;28;58280;-83
2023/03/05 01:37:01;;;;;;;;;14.25;9.00;;;;;7.72;100.00;102049.50;5033579;28;45345;-83
2023/03/05 01:39:26;;;;;;;;;21.75;15.75;;;;;7.71;100.00;102042.63;5032605;28;71207;-82
2023/03/05 01:41:52;;;;;;;;;24.50;15.25;;;;;7.70;100.00;102043.47;5034198;28;45318;-82
2023/03/05 01:44:23;;;;;;;;;20.00;12.25;;;;;7.69;100.00;102034.81;5034857;28;45340;-83
2023/03/05 01:46:48;;;;;;;;;25.25;16.00;;;;;7.70;100.00;102031.38;5036124;28;45546;-83
2023/03/05 01:49:22;;;;;;;;;20.00;14.50;;;;;7.71;100.00;102032.25;5036727;28;47444;-82
2023/03/05 01:51:57;;;;;;;;;27.00;15.00;;;;;7.72;100.00;102034.81;5027386;28;45483;-82
2023/03/05 01:54:26;;;;;;;;;22.00;15.00;;;;;7.69;100.00;102032.25;5038075;28;45367;-82
2023/03/05 01:56:52;;;;;;;;;18.00;15.25;;;;;7.67;100.00;102026.19;5035655;28;45341;-82
2023/03/05 01:59:18;;;;;;;;;23.75;18.00;;;;;7.68;100.00;102030.50;5035762;28;69567;-82
2023/03/05 02:01:47;;;;;;;;;25.25;13.75;;;;;7.68;100.00;102033.09;5036023;28;48487;-82
2023/03/05 02:04:15;;;;;;;;;24.25;17.50;;;;;7.68;100.00;102027.91;5036565;28;45428;-82
2023/03/05 02:06:42;;;;;;;;;19.50;15.25;;;;;7.70;100.00;102018.41;5036121;28;45506;-82
2023/03/05 02:09:07;;;;;;;;;32.75;19.50;;;;;7.70;100.00;102018.41;5035956;28;65587;-82
2023/03/05 02:11:33;;;;;;;;;23.25;14.25;;;;;7.71;100.00;102016.69;5036310;28;61721;-82
2023/03/05 02:13:59;;;;;;;;;21.75;12.25;;;;;7.70;100.00;102010.63;5037771;28;45344;-82
2023/03/05 02:16:24;;;;;;;;;19.75;15.00;;;;;7.68;100.00;102008.91;5035630;28;45333;-82
2023/03/05 02:18:50;;;;;;;;;19.25;13.25;;;;;7.66;100.00;102006.28;5036101;28;45442;-83
2023/03/05 02:21:27;;;;;;;;;25.00;15.75;;;;;7.64;100.00;102002.84;5036111;28;45467;-84
2023/03/05 02:23:52;;;;;;;;;23.00;15.75;;;;;7.65;100.00;101998.50;5037369;28;45438;-84
2023/03/05 02:26:18;;;;;;;;;18.25;15.50;;;;;7.65;100.00;101998.50;5031666;28;69135;-83
2023/03/05 02:28:46;;;;;;;;;24.00;14.50;;;;;7.65;100.00;101996.81;5035446;28;62384;-84
2023/03/05 02:31:14;;;;;;;;;22.75;15.75;;;;;7.64;100.00;101994.22;5035525;28;45340;-82
2023/03/05 02:33:40;;;;;;;;;27.25;19.50;;;;;7.60;100.00;101985.56;5035944;28;45460;-84
2023/03/05 02:36:06;;;;;;;;;18.00;12.50;;;;;7.60;100.00;101982.97;5037050;28;45561;-82
2023/03/05 02:38:31;;;;;;;;;22.00;18.75;;;;;7.60;100.00;101980.38;5036918;28;46420;-82
2023/03/05 02:40:57;;;;;;;;;23.25;14.00;;;;;7.61;100.00;101984.69;5036897;28;45394;-83
2023/03/05 02:43:22;;;;;;;;;23.50;17.00;;;;;7.61;100.00;101979.50;5035921;28;45451;-82
2023/03/05 02:45:48;;;;;;;;;14.25;12.75;;;;;7.59;100.00;101970.84;5036168;28;65319;-82
2023/03/05 02:48:13;;;;;;;;;22.50;16.00;;;;;7.62;100.00;101964.84;5034850;28;66896;-82
2023/03/05 02:50:39;;;;;;;;;26.00;16.25;;;;;7.64;100.00;101966.56;5034711;28;67016;-82
2023/03/05 02:53:05;;;;;;;;;21.00;16.00;;;;;7.64;100.00;101968.28;5036475;28;45305;-82
2023/03/05 02:55:31;;;;;;;;;20.25;16.25;;;;;7.66;100.00;101951.88;5036617;28;45507;-81
2023/03/05 02:57:56;;;;;;;;;19.25;12.00;;;;;7.67;100.00;101955.31;5035799;28;45247;-82
2023/03/05 03:00:21;;;;;;;;;25.00;17.75;;;;;7.69;100.00;101954.47;5017882;28;67063;-82
2023/03/05 03:02:47;;;;;;;;;17.50;15.00;;;;;7.70;100.00;101951.00;5035872;28;58416;-82
2023/03/05 03:05:12;;;;;;;;;23.50;17.25;;;;;7.69;100.00;101949.31;5035789;28;58616;-83
2023/03/05 03:07:37;;;;;;;;;26.25;17.50;;;;;7.68;100.00;101954.47;5035460;28;70027;-83
2023/03/05 03:10:04;;;;;;;;;23.00;15.50;;;;;7.65;100.00;101941.50;5036018;28;57944;-82
2023/03/05 03:12:29;;;;;;;;;21.75;15.00;;;;;7.61;100.00;101938.03;5036854;28;45478;-82
2023/03/05 03:14:55;;;;;;;;;37.50;30.50;;;;;7.59;100.00;101937.16;5034472;28;56755;-82
2023/03/05 03:17:20;;;;;;;;;21.75;15.00;;;;;7.59;100.00;101934.56;5036543;28;46445;-82
2023/03/05 03:19:46;;;;;;;;;20.50;15.00;;;;;7.61;100.00;101937.19;5034678;28;55559;-82
2023/03/05 03:22:13;;;;;;;;;26.75;18.00;;;;;7.56;100.00;101930.25;5035499;28;46536;-82
2023/03/05 03:24:40;;;;;;;;;18.00;13.25;;;;;7.52;100.00;101927.66;5035904;28;45689;-82
2023/03/05 03:27:05;;;;;;;;;28.00;18.25;;;;;7.50;100.00;101930.25;5035282;28;45402;-81
2023/03/05 03:29:30;;;;;;;;;19.50;15.75;;;;;7.49;100.00;101931.09;5035235;28;45345;-82
2023/03/05 03:31:56;;;;;;;;;19.00;11.25;;;;;7.51;100.00;101926.78;5036137;28;45574;-82
2023/03/05 03:34:22;;;;;;;;;22.50;14.50;;;;;7.53;100.00;101917.28;5051414;28;57692;-82
2023/03/05 03:36:48;;;;;;;;;13.25;5.25;;;;;7.55;100.00;101925.94;5033589;28;69346;-82
2023/03/05 03:39:14;;;;;;;;;17.00;11.00;;;;;7.53;100.00;101919.88;5035022;28;45475;-82
2023/03/05 03:41:41;;;;;;;;;26.50;17.25;;;;;7.51;100.00;101918.16;5035634;28;45436;-81
2023/03/05 03:44:09;;;;;;;;;17.50;15.75;;;;;7.48;100.00;101912.97;5035104;28;45396;-82
2023/03/05 03:46:35;;;;;;;;;24.00;15.00;;;;;7.46;100.00;101912.94;5034178;28;45536;-82
2023/03/05 03:49:01;;;;;;;;;22.25;18.00;;;;;7.45;100.00;101906.06;5035943;28;45404;-82
2023/03/05 03:51:26;;;;;;;;;25.75;19.00;;;;;7.45;100.00;101906.06;5033618;28;55507;-82
2023/03/05 03:53:52;;;;;;;;;18.00;16.00;;;;;7.43;100.00;101902.59;5034148;28;61096;-83
2023/03/05 03:56:17;;;;;;;;;15.50;13.25;;;;;7.47;100.00;101900.88;5033883;28;48148;-82
2023/03/05 03:58:43;;;;;;;;;16.00;12.25;;;;;7.52;100.00;101899.16;5034644;28;45357;-83
2023/03/05 04:01:08;;;;;;;;;17.50;12.50;;;;;7.55;100.00;101900.00;5017910;28;45341;-82
2023/03/05 04:03:34;;;;;;;;;20.75;16.75;;;;;7.56;100.00;101906.09;5035302;28;59739;-82
2023/03/05 04:05:59;;;;;;;;;23.00;14.25;;;;;7.59;100.00;101897.44;5032941;28;65324;-83
2023/03/05 04:08:24;;;;;;;;;16.00;10.50;;;;;7.56;100.00;101896.56;5035277;28;45673;-84
2023/03/05 04:10:50;;;;;;;;;16.25;15.50;;;;;7.59;100.00;101895.72;5036004;28;45432;-83
2023/03/05 04:13:15;;;;;;;;;18.75;12.50;;;;;7.62;100.00;101892.28;5047327;28;63351;-82
2023/03/05 04:15:40;;;;;;;;;18.75;15.25;;;;;7.64;100.00;101890.56;5026264;28;63483;-83
2023/03/05 04:18:06;;;;;;;;;22.00;15.50;;;;;7.64;100.00;101890.56;5034430;28;45413;-83
2023/03/05 04:20:31;;;;;;;;;21.25;18.25;;;;;7.63;100.00;101891.41;5034639;28;64067;-83
2023/03/05 04:22:56;;;;;;;;;21.00;14.25;;;;;7.61;100.00;101886.22;5034947;28;63047;-83
2023/03/05 04:25:22;;;;;;;;;20.50;13.50;;;;;7.60;100.00;101889.69;5033298;28;68739;-83
2023/03/05 04:27:47;;;;;;;;;17.75;13.25;;;;;7.61;100.00;101893.97;5034329;28;45681;-83
2023/03/05 04:30:16;;;;;;;;;18.75;10.50;;;;;7.60;100.00;101883.63;5035074;28;65523;-82
2023/03/05 04:32:41;;;;;;;;;24.25;10.75;;;;;7.60;100.00;101894.84;5034908;28;45470;-83
2023/03/05 04:35:07;;;;;;;;;18.00;10.50;;;;;7.59;100.00;101881.91;5033795;28;46101;-83
2023/03/05 04:37:32;;;;;;;;;16.75;12.25;;;;;7.59;100.00;101885.34;5034400;28;45440;-83
2023/03/05 04:39:58;;;;;;;;;16.25;12.25;;;;;7.59;100.00;101877.56;5035776;28;51062;-83
2023/03/05 04:42:23;;;;;;;;;21.75;14.75;;;;;7.59;100.00;101876.72;5035656;28;58898;-83
2023/03/05 04:44:49;;;;;;;;;12.00;9.75;;;;;7.57;100.00;101872.38;5034654;28;47145;-82
2023/03/05 04:47:15;;;;;;;;;18.50;10.75;;;;;7.57;100.00;101874.97;5047918;28;45932;-85
2023/03/05 04:49:41;;;;;;;;;13.25;12.25;;;;;7.56;100.00;101867.22;5050412;28;45483;-82
2023/03/05 04:52:06;;;;;;;;;17.00;14.00;;;;;7.55;100.00;101868.06;5034489;28;62445;-83
2023/03/05 04:54:31;;;;;;;;;20.25;15.00;;;;;7.55;100.00;101868.06;5034247;28;70141;-82
2023/03/05 04:56:57;;;;;;;;;17.50;12.00;;;;;7.53;100.00;101857.69;5034356;28;59245;-83
2023/03/05 04:59:22;;;;;;;;;19.00;12.75;;;;;7.56;100.00;101865.47;5035252;28;45246;-81
2023/03/05 05:01:47;;;;;;;;;17.00;11.50;;;;;7.53;100.00;101859.44;5035273;28;45622;-82
2023/03/05 05:04:13;;;;;;;;;18.75;11.25;;;;;7.50;100.00;101857.72;5032600;28;71213;-82
2023/03/05 05:06:38;;;;;;;;;17.25;13.00;;;;;7.48;100.00;101850.78;5033888;28;45565;-82
2023/03/05 05:09:03;;;;;;;;;21.50;13.50;;;;;7.45;100.00;101853.38;5033820;28;45337;-82
2023/03/05 05:11:29;;;;;;;;;14.25;13.50;;;;;7.42;100.00;101850.78;5033074;28;64679;-80
2023/03/05 05:13:54;;;;;;;;;11.00;7.50;;;;;7.42;100.00;101854.22;5016081;28;69783;-83
2023/03/05 05:16:19;;;;;;;;;19.00;14.00;;;;;7.42;100.00;101843.84;5033397;28;45353;-83
2023/03/05 05:18:45;;;;;;;;;18.00;9.25;;;;;7.41;100.00;101841.25;5034887;28;45216;-83
2023/03/05 05:21:12;;;;;;;;;18.00;12.00;;;;;7.40;100.00;101842.16;5035280;28;54545;-82
2023/03/05 05:23:38;;;;;;;;;13.50;11.75;;;;;7.39;100.00;101841.25;5036881;28;46309;-83
2023/03/05 05:26:05;;;;;;;;;14.00;12.50;;;;;7.42;100.00;101837.81;5036785;28;45381;-83
2023/03/05 05:28:31;;;;;;;;;19.75;13.50;;;;;7.47;100.00;101836.13;5070907;28;45840;-83
2023/03/05 05:30:56;;;;;;;;;13.75;11.50;;;;;7.48;100.00;101828.31;5036810;28;46719;-83
2023/03/05 05:33:22;;;;;;;;;13.00;12.00;;;;;7.51;100.00;101830.06;5036516;28;52892;-83
2023/03/05 05:35:47;;;;;;;;;14.00;12.75;;;;;7.52;100.00;101830.06;5038218;28;45808;-84
2023/03/05 05:38:13;;;;;;;;;19.50;12.25;;;;;7.54;100.00;101825.75;5036344;28;64950;-83
2023/03/05 05:40:38;;;;;;;;;13.00;9.00;;;;;7.55;100.00;101832.66;5037297;28;62550;-83
2023/03/05 05:43:04;;;;;;;;;11.25;8.00;;;;;7.56;100.00;101834.38;5036546;28;47413;-83
2023/03/05 05:45:29;;;;;;;;;9.25;8.00;;;;;7.56;100.00;101824.03;5036453;28;45485;-83
2023/03/05 05:47:54;;;;;;;;;11.50;8.75;;;;;7.55;100.00;101821.44;5034987;28;65213;-82
2023/03/05 05:50:20;;;;;;;;;25.75;12.00;;;;;7.54;100.00;101824.88;5036403;28;58262;-82
2023/03/05 05:52:46;;;;;;;;;19.50;11.75;;;;;7.51;100.00;101830.94;5023924;28;73507;-82
2023/03/05 05:55:11;;;;;;;;;19.50;13.75;;;;;7.48;100.00;101820.53;5049341;28;45506;-81
2023/03/05 05:57:37;;;;;;;;;12.00;11.75;;;;;7.47;100.00;101820.56;5036609;28;45649;-82
2023/03/05 06:00:05;;;;;;;;;16.75;11.00;;;;;7.47;100.00;101824.00;5037951;28;45280;-82
2023/03/05 06:02:31;;;;;;;;;14.00;9.50;;;;;7.46;100.00;101819.69;5037115;28;46318;-82
2023/03/05 06:04:56;;;;;;;;;16.00;10.50;;;;;7.44;100.00;101823.16;5036268;28;69090;-82
2023/03/05 06:07:22;;;;;;;;;11.75;7.00;;;;;7.43;100.00;101817.09;5036216;28;45334;-82
2023/03/05 06:09:47;;;;;;;;;11.25;10.25;;;;;7.43;100.00;101824.00;5036722;28;45321;-82
2023/03/05 06:12:13;;;;;;;;;21.50;11.75;;;;;7.46;100.00;101816.25;5037364;28;46121;-82
2023/03/05 06:14:38;;;;;;;;;12.25;8.00;;;;;7.48;100.00;101817.09;5037444;28;45375;-82
2023/03/05 06:17:03;;;;;;;;;15.00;8.50;;;;;7.45;100.00;101820.56;5037017;28;57157;-82
2023/03/05 06:19:29;;;;;;;;;14.00;8.00;;;;;7.41;100.00;101812.75;5037445;28;45391;-84
2023/03/05 06:21:54;;;;;;;;;11.75;6.50;;;;;7.41;100.00;101817.94;5036923;28;63098;-83
2023/03/05 06:24:21;;;;;;;;;20.00;12.00;;;;;7.36;100.00;101823.13;5052713;28;45244;-83
2023/03/05 06:26:47;;;;;;;;;17.50;9.00;;;;;7.34;100.00;101817.94;5037213;28;45435;-83
2023/03/05 06:29:12;;;;;;;;;15.25;12.50;;;;;7.34;100.00;101823.13;5037390;28;45396;-83
2023/03/05 06:31:38;;;;;;;;;16.50;12.75;;;;;7.33;100.00;101821.38;5035364;28;46340;-83
2023/03/05 06:34:03;;;;;;;;;13.50;11.50;;;;;7.30;100.00;101817.91;5036788;28;60639;-84
2023/03/05 06:36:29;;;;;;;;;15.25;10.25;;;;;7.25;100.00;101817.94;5036117;28;45396;-83
2023/03/05 06:38:55;;;;;;;;;18.25;11.25;;;;;7.21;100.00;101820.53;5037439;28;45770;-83
2023/03/05 06:41:24;;;;;;;;;17.00;12.00;;;;;7.21;100.00;101818.78;5035899;28;46007;-83
2023/03/05 06:43:49;;;;;;;;;16.25;12.00;;;;;7.23;100.00;101821.38;5032727;28;45774;-83
2023/03/05 06:46:26;;;;;;;;;17.25;9.25;;;;;7.23;100.00;101814.47;5016898;28;62113;-83
2023/03/05 06:48:54;;;;;;;;;16.75;11.25;;;;;7.24;100.00;101810.16;5018695;28;45490;-84
2023/03/05 06:51:25;;;;;;;;;15.75;10.00;;;;;7.29;100.00;101811.88;5035706;28;46500;-83
2023/03/05 06:53:51;;;;;;;;;14.75;10.50;;;;;7.34;100.00;101815.34;5064728;28;45735;-82
2023/03/05 06:56:17;;;;;;;;;35.75;21.50;;;;;7.34;100.00;101809.31;5017186;28;45291;-82
2023/03/05 06:58:45;;;;;;;;;17.00;11.50;;;;;7.37;100.00;101814.50;5022452;28;45512;-83
2023/03/05 07:01:10;;;;;;;;;13.25;11.00;;;;;7.40;100.00;101817.09;5036621;28;46257;-82
2023/03/05 07:03:36;;;;;;;;;17.75;9.25;;;;;7.45;100.00;101805.03;5036172;28;45526;-82
2023/03/05 07:06:07;;;;;;;;;21.25;13.50;;;;;7.49;100.00;101803.28;5036789;28;45461;-82
2023/03/05 07:08:32;;;;;;;;;17.00;11.75;;;;;7.51;100.00;101806.75;5035295;28;45216;-82
2023/03/05 07:10:58;;;;;;;;;21.25;14.25;;;;;7.53;100.00;101807.63;5036432;28;45588;-82
2023/03/05 07:13:23;;;;;;;;;20.75;14.00;;;;;7.58;100.00;101808.50;5035498;28;45368;-82
2023/03/05 07:15:49;;;;;;;;;21.75;17.25;;;;;7.63;100.00;101808.47;5036125;28;45315;-81
2023/03/05 07:18:14;;;;;;;;;16.00;11.00;;;;;7.68;100.00;101804.16;5034836;28;65861;-83
2023/03/05 07:20:39;;;;;;;;;23.75;12.00;;;;;7.72;100.00;101801.56;5050560;28;69045;-82
2023/03/05 07:23:05;;;;;;;;;10.25;5.75;;;;;7.78;100.00;101802.44;5034748;28;61735;-83
2023/03/05 07:25:30;;;;;;;;;12.50;10.25;;;;;7.78;100.00;101798.09;5035800;28;54181;-82
2023/03/05 07:27:56;;;;;;;;;16.00;8.25;;;;;7.82;100.00;101798.97;5035342;28;45343;-82
2023/03/05 07:30:22;;;;;;;;;11.00;8.75;;;;;7.86;100.00;101806.75;5049197;28;66994;-83
2023/03/05 07:32:47;;;;;;;;;16.50;8.00;;;;;7.89;100.00;101805.88;5035480;28;59250;-82
2023/03/05 07:35:12;;;;;;;;;12.25;8.25;;;;;7.92;100.00;101806.75;5036124;28;57932;-82
2023/03/05 07:37:38;;;;;;;;;8.00;7.75;;;;;7.94;100.00;101809.34;5035091;28;45364;-83
2023/03/05 07:40:04;;;;;;;;;15.75;9.75;;;;;7.90;100.00;101810.22;5034117;28;47099;-82
2023/03/05 07:42:30;;;;;;;;;12.00;9.00;;;;;7.91;100.00;101809.31;5018691;28;45652;-83
2023/03/05 07:44:55;;;;;;;;;13.25;8.75;;;;;7.95;100.00;101809.34;5034680;28;45458;-83
2023/03/05 07:47:22;;;;;;;;;20.00;12.00;;;;;8.00;100.00;101811.06;5052697;28;45619;-83
2023/03/05 07:49:47;;;;;;;;;19.25;10.50;;;;;8.01;100.00;101815.41;5036452;28;45494;-82
2023/03/05 07:52:13;;;;;;;;;14.75;10.25;;;;;8.03;100.00;101816.25;5037088;28;45441;-83
2023/03/05 07:54:38;;;;;;;;;23.25;12.00;;;;;8.02;100.00;101810.19;5036600;28;59942;-83
2023/03/05 07:57:05;;;;;;;;;12.25;10.50;;;;;8.01;100.00;101807.63;5035893;28;45471;-83
2023/03/05 07:59:30;;;;;;;;;26.75;12.75;;;;;7.96;100.00;101812.78;5035558;28;46170;-83
2023/03/05 08:01:56;;;;;;;;;14.50;11.25;;;;;7.91;100.00;101812.81;5036868;28;45420;-83
2023/03/05 08:04:21;;;;;;;;;13.75;12.00;;;;;7.88;100.00;101805.03;5018299;28;45461;-83
2023/03/05 08:06:48;;;;;;;;;9.25;9.25;;;;;7.92;100.00;101804.16;5034168;28;47896;-83
2023/03/05 08:09:14;;;;;;;;;24.75;16.25;;;;;7.97;100.00;101804.16;5034218;28;48151;-83
2023/03/05 08:11:40;;;;;;;;;50.25;34.25;;;;;8.02;100.00;101811.91;5034806;28;45955;-82
2023/03/05 08:14:05;;;;;;;;;19.50;15.00;;;;;8.06;100.00;101796.38;5034261;28;62765;-79
2023/03/05 08:16:31;;;;;;;;;20.75;15.75;;;;;8.12;100.00;101796.34;5039603;28;51096;-80
2023/03/05 08:18:57;;;;;;;;;13.00;12.00;;;;;8.16;100.00;101794.63;5035287;28;45246;-78
2023/03/05 08:21:26;;;;;;;;;15.00;11.75;;;;;8.16;100.00;101788.56;5034184;28;45786;-78
2023/03/05 08:23:51;;;;;;;;;14.25;8.50;;;;;8.15;100.00;101785.09;5035828;28;45412;-80
2023/03/05 08:26:20;;;;;;;;;0.00;0.00;;;;;8.09;100.00;101782.53;5035371;28;45367;-79
2023/03/05 08:28:46;;;;;;;;;21.75;11.00;;;;;8.08;100.00;101793.78;5034938;28;45353;-81
2023/03/05 08:31:12;;;;;;;;;22.75;13.25;;;;;8.05;100.00;101792.03;5035662;28;45321;-81
2023/03/05 08:33:38;;;;;;;;;18.75;12.00;;;;;8.05;100.00;101780.81;5035228;28;45372;-79
2023/03/05 08:36:04;;;;;;;;;23.50;16.00;;;;;8.03;100.00;101780.81;5035235;28;45420;-79
2023/03/05 08:38:29;;;;;;;;;19.25;12.75;;;;;8.04;100.00;101786.84;5035469;28;46365;-78
2023/03/05 08:40:55;;;;;;;;;19.00;9.50;;;;;8.04;100.00;101781.66;5033889;28;67816;-78
2023/03/05 08:43:20;;;;;;;;;21.50;12.50;;;;;8.10;100.00;101786.84;5035564;28;45518;-78
2023/03/05 08:45:46;;;;;;;;;14.25;10.50;;;;;8.13;100.00;101781.66;5034443;28;63582;-79
2023/03/05 08:48:12;;;;;;;;;23.50;12.50;;;;;8.23;100.00;101785.97;5034968;28;46217;-79
2023/03/05 08:50:38;;;;;;;;;18.75;15.00;;;;;8.29;100.00;101787.66;5035308;28;45412;-81
2023/03/05 08:53:03;;;;;;;;;20.75;13.25;;;;;8.34;100.00;101778.16;5034427;28;65680;-79
2023/03/05 08:55:28;;;;;;;;;20.00;12.50;;;;;8.40;100.00;101777.28;5034210;28;58157;-79
2023/03/05 08:57:54;;;;;;;;;16.00;9.50;;;;;8.43;100.00;101777.28;5039103;28;46189;-79
2023/03/05 09:00:19;;;;;;;;;23.25;11.50;;;;;8.51;100.00;101778.13;5038977;28;45314;-79
2023/03/05 09:02:45;;;;;;;;;16.25;10.50;;;;;8.58;100.00;101774.63;5037677;28;45416;-80
2023/03/05 09:05:10;;;;;;;;;24.00;12.75;;;;;8.63;100.00;101775.47;5038072;28;58500;-81
2023/03/05 09:07:36;;;;;;;;;20.00;10.50;;;;;8.65;100.00;101773.72;5036040;28;46343;-83
2023/03/05 09:10:03;;;;;;;;;19.00;12.00;;;;;8.69;100.00;101770.25;5038480;28;45881;-82
2023/03/05 09:12:28;;;;;;;;;13.50;8.75;;;;;8.72;100.00;101765.03;5039159;28;45245;-82
2023/03/05 09:14:54;;;;;;;;;21.25;14.25;;;;;8.76;100.00;101765.88;5037388;28;58343;-84
2023/03/05 09:17:19;;;;;;;;;17.25;9.75;;;;;8.91;100.00;101772.72;5037927;28;47010;-80
2023/03/05 09:19:45;;;;;;;;;18.75;12.00;;;;;9.04;100.00;101766.59;5038446;28;45475;-79
2023/03/05 09:22:10;;;;;;;;;13.75;10.50;;;;;9.19;100.00;101772.56;5037864;28;58824;-80
2023/03/05 09:24:35;;;;;;;;;13.00;8.50;;;;;9.27;100.00;101773.41;5038138;28;45439;-80
2023/03/05 09:27:01;;;;;;;;;9.00;8.00;;;;;9.34;100.00;101769.00;5036320;28;55852;-80
2023/03/05 09:29:26;;;;;;;;;20.25;9.50;;;;;9.38;100.00;101766.38;5038152;28;45333;-81
2023/03/05 09:31:53;;;;;;;;;17.25;8.00;;;;;9.36;100.00;101773.34;5037400;28;45458;-82
2023/03/05 09:34:18;;;;;;;;;12.50;9.00;;;;;9.35;100.00;101766.41;5036751;28;45479;-81
2023/03/05 09:36:44;;;;;;;;;16.25;9.50;;;;;9.36;100.00;101760.34;5038126;28;45431;-82
2023/03/05 09:39:09;;;;;;;;;17.00;15.50;;;;;9.40;100.00;101759.44;5036256;28;62156;-80
2023/03/05 09:41:53;;;;;;;;;14.00;12.50;;;;;9.47;100.00;101758.53;5037865;28;45498;-80
2023/03/05 09:44:45;;;;;;;;;17.50;12.25;;;;;9.50;100.00;101757.63;5038154;28;45467;-80
2023/03/05 09:47:18;;;;;;;;;15.50;8.75;;;;;9.50;100.00;101749.81;5015944;28;45416;-83
2023/03/05 09:50:02;;;;;;;;;16.00;10.00;;;;;9.49;100.00;101746.38;5014927;28;45436;-81
2023/03/05 09:52:37;;;;;;;;;18.75;9.25;;;;;9.50;100.00;101745.47;5015130;28;45412;-81
2023/03/05 09:55:03;;;;;;;;;16.75;10.25;;;;;9.54;100.00;101735.06;4998183;28;45492;-81
2023/03/05 09:57:38;;;;;;;;;16.75;9.25;;;;;9.60;100.00;101727.19;5014884;28;47019;-81
2023/03/05 10:00:23;;;;;;;;;17.50;12.50;;;;;9.65;100.00;101728.03;4998213;28;45768;-81
2023/03/05 10:02:57;;;;;;;;;17.00;9.75;;;;;9.68;100.00;101726.25;4998244;28;45526;-81
2023/03/05 10:05:59;;;;;;;;;21.00;12.75;;;;;9.69;100.00;101722.81;4998429;28;45386;-81
2023/03/05 10:08:31;;;;;;;;;21.25;10.00;;;;;9.72;100.00;101721.06;5014301;28;45571;-81
2023/03/05 10:10:58;;;;;;;;;10.25;8.50;;;;;9.73;100.00;101722.75;5031311;28;45479;-81
2023/03/05 10:13:36;;;;;;;;;15.25;10.00;;;;;9.72;100.00;101716.69;5014657;28;45365;-81
2023/03/05 10:16:23;;;;;;;;;13.75;9.25;;;;;9.65;100.00;101713.28;4998102;28;45438;-80
2023/03/05 10:19:02;;;;;;;;;17.75;11.25;;;;;9.61;100.00;101710.75;5014484;28;45663;-81
2023/03/05 10:21:31;;;;;;;;;18.50;9.25;;;;;9.57;100.00;101709.06;4997990;28;45901;-81
2023/03/05 10:24:13;;;;;;;;;16.25;13.50;;;;;9.52;100.00;101703.88;5004436;28;45521;-81
2023/03/05 10:26:44;;;;;;;;;15.00;8.25;;;;;9.45;100.00;101700.50;5015270;28;45520;-80
2023/03/05 10:29:28;;;;;;;;;21.75;9.50;;;;;9.46;100.00;101698.75;5016463;28;46360;-81
2023/03/05 10:32:16;;;;;;;;;16.25;11.50;;;;;9.49;100.00;101688.34;5015425;28;45448;-81
2023/03/05 10:34:50;;;;;;;;;13.75;11.00;;;;;9.50;100.00;101693.50;5016647;28;45449;-81
2023/03/05 10:37:27;;;;;;;;;16.75;11.25;;;;;9.51;100.00;101691.78;5016271;28;45464;-81
2023/03/05 10:39:55;;;;;;;;;13.25;9.75;;;;;9.55;100.00;101693.47;5015084;28;45326;-81
2023/03/05 10:42:20;;;;;;;;;14.00;10.00;;;;;9.60;100.00;101688.22;5016394;28;45279;-81
2023/03/05 10:44:52;;;;;;;;;13.00;10.00;;;;;9.68;100.00;101689.03;5016098;28;45206;-81
2023/03/05 10:47:24;;;;;;;;;24.25;19.00;;;;;9.72;100.00;101685.50;5015156;28;45483;-81
2023/03/05 10:49:52;;;;;;;;;10.25;8.75;;;;;9.75;100.00;101688.09;4976780;28;1257184;-81
2023/03/05 10:52:27;;;;;;;;;6.00;4.50;;;;;9.74;100.00;101681.16;5036963;28;45430;-81
2023/03/05 10:54:52;;;;;;;;;6.50;6.50;;;;;9.75;100.00;101684.59;5037265;28;45488;-81
2023/03/05 10:57:20;;;;;;;;;6.00;6.00;;;;;9.76;100.00;101684.59;5037150;28;45323;-81
2023/03/05 10:59:53;;;;;;;;;14.50;7.25;;;;;9.73;100.00;101683.75;5037273;28;45381;-81
2023/03/05 11:02:20;;;;;;;;;9.00;6.00;;;;;9.62;100.00;101673.47;5037090;28;45380;-81
2023/03/05 11:04:46;;;;;;;;;13.75;9.50;;;;;9.57;100.00;101672.66;5037081;28;45378;-81
2023/03/05 11:07:14;;;;;;;;;8.25;7.25;;;;;9.53;100.00;101666.63;5035511;28;45530;-81
2023/03/05 11:09:41;;;;;;;;;9.25;6.00;;;;;9.47;100.00;101664.97;5037027;28;46396;-81
2023/03/05 11:12:20;;;;;;;;;8.75;7.50;;;;;9.46;100.00;101672.75;5035884;28;45893;-81